Barcelona Knutsen — EACW — position and weather

sailwx.info

Track history (hours):
 
Tides and Currents Weather Stations Pressure Air Temp Water Temp Dewpoint Dewpoint Depression Visibility Wind Speed Wind Dir Waves Ship Positions

Barcelona Knutsen

Last reported at 2018-Jan-25 07:14 UTC. Time now 2018-Apr-23 07:54 UTC.
Position N 34°40' E 140°06'.
Warning: this ship's position is months out of date.

Length 290 m; draft 9.2 m.

Type: Tanker. MMSI: 224436000.

Date/timePositionNaut miles runAvg speedWind from/ knotsBaromVisibWave heightAir tempDewpointWater temp
2018-Jan-25 07:14N 34°40' E 140°06'719.2
2018-Jan-25 06:52N 34°41' E 139°58'718.0
2018-Jan-25 06:30N 34°43' E 139°50'817.0
2018-Jan-25 06:00N 34°46' E 139°41'815.3
2018-Jan-25 05:30N 34°53' E 139°37'815.6
2018-Jan-25 05:00N 35°01' E 139°40'815.2
2018-Jan-25 04:31N 35°07' E 139°44'612.0
2018-Jan-25 04:00N 35°13' E 139°46'612.1
2018-Jan-25 03:30N 35°19' E 139°43'611.9
2018-Jan-25 03:00N 35°25' E 139°43'4 8.6
2018-Jan-25 02:30N 35°23' E 139°48'2 4.6
2018-Jan-25 01:59N 35°21' E 139°49'0 0.1
2018-Jan-25 01:26N 35°21' E 139°49'0 0.0
2018-Jan-25 00:59N 35°21' E 139°49'0 0.0
2018-Jan-25 00:30N 35°21' E 139°49'0 0.0
2018-Jan-25 00:00N 35°21' E 139°49'0 0.0
2018-Jan-24 23:30N 35°21' E 139°49'0 0.0
2018-Jan-24 23:00N 35°21' E 139°49'0 0.0
2018-Jan-24 22:31N 35°21' E 139°49'0 0.0
2018-Jan-24 22:00N 35°21' E 139°49'0 0.0
2018-Jan-24 21:30N 35°21' E 139°49'0 0.0
2018-Jan-24 21:00N 35°21' E 139°49'0 0.0
2018-Jan-24 20:30N 35°21' E 139°49'0 0.0
2018-Jan-24 20:01N 35°21' E 139°49'0 0.0
2018-Jan-24 19:30N 35°21' E 139°49'0 0.0
2018-Jan-24 19:00N 35°21' E 139°49'0 0.0
2018-Jan-24 18:31N 35°21' E 139°49'0 0.0
2018-Jan-24 18:00N 35°21' E 139°49'0 0.0
2018-Jan-24 17:30N 35°21' E 139°49'0 0.0
2018-Jan-24 17:00N 35°21' E 139°49'0 0.0
2018-Jan-24 16:30N 35°21' E 139°49'0 0.0
2018-Jan-24 16:01N 35°21' E 139°49'0 0.0
2018-Jan-24 15:30N 35°21' E 139°49'0 0.0
2018-Jan-24 15:00N 35°21' E 139°49'0 0.0
2018-Jan-24 14:30N 35°21' E 139°49'0 0.0
2018-Jan-24 14:00N 35°21' E 139°49'0 0.0
2018-Jan-24 13:30N 35°21' E 139°49'0 0.0
2018-Jan-24 13:00N 35°21' E 139°49'0 0.0
2018-Jan-24 12:30N 35°21' E 139°49'0 0.0
2018-Jan-24 12:01N 35°21' E 139°49'0 0.0
2018-Jan-24 11:30N 35°21' E 139°49'0 0.0
2018-Jan-24 11:00N 35°21' E 139°49'0 0.0
2018-Jan-24 10:31N 35°21' E 139°49'0 0.0
2018-Jan-24 10:00N 35°21' E 139°49'0 0.0
2018-Jan-24 09:31N 35°21' E 139°49'0 0.0
2018-Jan-24 09:01N 35°21' E 139°49'0 0.0
2018-Jan-24 08:30N 35°21' E 139°49'0 0.0
2018-Jan-24 08:01N 35°21' E 139°49'0 0.0
2018-Jan-24 07:30N 35°21' E 139°49'0 0.0
2018-Jan-24 07:00N 35°21' E 139°49'0 0.0
2018-Jan-24 06:31N 35°21' E 139°49'0 0.0
2018-Jan-24 06:00N 35°21' E 139°49'0 0.0
2018-Jan-24 05:31N 35°21' E 139°49'0 0.0
2018-Jan-24 05:01N 35°21' E 139°49'0 0.0
2018-Jan-24 04:30N 35°21' E 139°49'0 0.0
2018-Jan-24 04:01N 35°21' E 139°49'0 0.0
2018-Jan-24 03:30N 35°21' E 139°49'0 0.0
2018-Jan-24 03:00N 35°21' E 139°49'0 0.0
2018-Jan-24 02:30N 35°21' E 139°49'0 0.1
2018-Jan-24 02:00N 35°21' E 139°49'1 2.1
2018-Jan-24 01:30N 35°22' E 139°49'2 4.9
2018-Jan-24 01:00N 35°22' E 139°46'4 7.9
2018-Jan-24 00:30N 35°19' E 139°44'510.5
2018-Jan-24 00:00N 35°14' E 139°47'510.2
2018-Jan-23 23:31N 35°09' E 139°47'4 7.0
2018-Jan-23 23:00N 35°06' E 139°45'4 8.1
2018-Jan-23 22:30N 35°03' E 139°41'5 9.2
2018-Jan-23 22:01N 34°59' E 139°38'5 9.4
2018-Jan-23 21:30N 34°54' E 139°38'5 9.4
2018-Jan-23 21:00N 34°50' E 139°38'4 7.8
2018-Jan-23 20:28N 34°47' E 139°42'3 7.5
2018-Jan-23 20:00N 34°46' E 139°46'5 7.3
2018-Jan-23 19:20N 34°44' E 139°51'2 7.3
2018-Jan-23 19:00N 34°43' E 139°54'15 4.0
2018-Jan-23 15:20N 34°37' E 140°10'514.7
2018-Jan-23 15:00N 34°36' E 140°05'814.2
2018-Jan-23 14:27N 34°35' E 139°55'614.2
2018-Jan-23 14:01N 34°36' E 139°47'510.9
2018-Jan-23 13:30N 34°35' E 139°41'5 7.9
2018-Jan-23 12:54N 34°37' E 139°46'4 8.7
2018-Jan-23 12:28N 34°39' E 139°50'4 7.6
2018-Jan-23 12:00N 34°39' E 139°55'6 7.4
2018-Jan-23 11:10N 34°39' E 140°02'10 4.8
2018-Jan-23 09:11N 34°39' E 140°14'1113.6
2018-Jan-23 08:22N 34°37' E 140°00'513.7
2018-Jan-23 08:00N 34°37' E 139°54'11 5.6
2018-Jan-23 06:06N 34°39' E 140°07'3 2.5
2018-Jan-23 04:46N 34°40' E 140°11'413.2
2018-Jan-23 04:30N 34°39' E 140°06'714.1
2018-Jan-23 04:00N 34°38' E 139°58'1114.3
2018-Jan-23 03:13N 34°36' E 139°45'313.7
2018-Jan-23 03:00N 34°35' E 139°41'6 6.2
2018-Jan-23 02:05N 34°36' E 139°48'1 7.8
2018-Jan-23 01:57N 34°37' E 139°49'3 7.2
2018-Jan-23 01:30N 34°37' E 139°53'3 6.8
2018-Jan-23 01:00N 34°38' E 139°57'4 8.2
2018-Jan-23 00:29N 34°39' E 140°02'4 7.4
2018-Jan-22 23:57N 34°38' E 140°07'1111.1
2018-Jan-22 22:57N 34°27' E 140°08'611.7
2018-Jan-22 22:25N 34°21' E 140°09'3 0.5
2018-Jan-22 15:47N 34°24' E 140°09'  
Track history (hours):
 
Tides and Currents Weather Stations Pressure Air Temp Water Temp Dewpoint Dewpoint Depression Visibility Wind Speed Wind Dir Waves Ship Positions

Barcelona Knutsen

Last reported at 2018-Jan-25 07:14 UTC. Time now 2018-Apr-23 07:54 UTC.
Position N 34°40' E 140°06'.
Warning: this ship's position is months out of date.

Length 290 m; draft 9.2 m.

Type: Tanker. MMSI: 224436000.

Date/timePositionNaut miles runAvg speedWind from/ knotsBaromVisibWave heightAir tempDewpointWater temp
2018-Jan-25 07:14N 34°40' E 140°06'719.2
2018-Jan-25 06:52N 34°41' E 139°58'718.0
2018-Jan-25 06:30N 34°43' E 139°50'817.0
2018-Jan-25 06:00N 34°46' E 139°41'815.3
2018-Jan-25 05:30N 34°53' E 139°37'815.6
2018-Jan-25 05:00N 35°01' E 139°40'815.2
2018-Jan-25 04:31N 35°07' E 139°44'612.0
2018-Jan-25 04:00N 35°13' E 139°46'612.1
2018-Jan-25 03:30N 35°19' E 139°43'611.9
2018-Jan-25 03:00N 35°25' E 139°43'4 8.6
2018-Jan-25 02:30N 35°23' E 139°48'2 4.6
2018-Jan-25 01:59N 35°21' E 139°49'0 0.1
2018-Jan-25 01:26N 35°21' E 139°49'0 0.0
2018-Jan-25 00:59N 35°21' E 139°49'0 0.0
2018-Jan-25 00:30N 35°21' E 139°49'0 0.0
2018-Jan-25 00:00N 35°21' E 139°49'0 0.0
2018-Jan-24 23:30N 35°21' E 139°49'0 0.0
2018-Jan-24 23:00N 35°21' E 139°49'0 0.0
2018-Jan-24 22:31N 35°21' E 139°49'0 0.0
2018-Jan-24 22:00N 35°21' E 139°49'0 0.0
2018-Jan-24 21:30N 35°21' E 139°49'0 0.0
2018-Jan-24 21:00N 35°21' E 139°49'0 0.0
2018-Jan-24 20:30N 35°21' E 139°49'0 0.0
2018-Jan-24 20:01N 35°21' E 139°49'0 0.0
2018-Jan-24 19:30N 35°21' E 139°49'0 0.0
2018-Jan-24 19:00N 35°21' E 139°49'0 0.0
2018-Jan-24 18:31N 35°21' E 139°49'0 0.0
2018-Jan-24 18:00N 35°21' E 139°49'0 0.0
2018-Jan-24 17:30N 35°21' E 139°49'0 0.0
2018-Jan-24 17:00N 35°21' E 139°49'0 0.0
2018-Jan-24 16:30N 35°21' E 139°49'0 0.0
2018-Jan-24 16:01N 35°21' E 139°49'0 0.0
2018-Jan-24 15:30N 35°21' E 139°49'0 0.0
2018-Jan-24 15:00N 35°21' E 139°49'0 0.0
2018-Jan-24 14:30N 35°21' E 139°49'0 0.0
2018-Jan-24 14:00N 35°21' E 139°49'0 0.0
2018-Jan-24 13:30N 35°21' E 139°49'0 0.0
2018-Jan-24 13:00N 35°21' E 139°49'0 0.0
2018-Jan-24 12:30N 35°21' E 139°49'0 0.0
2018-Jan-24 12:01N 35°21' E 139°49'0 0.0
2018-Jan-24 11:30N 35°21' E 139°49'0 0.0
2018-Jan-24 11:00N 35°21' E 139°49'0 0.0
2018-Jan-24 10:31N 35°21' E 139°49'0 0.0
2018-Jan-24 10:00N 35°21' E 139°49'0 0.0
2018-Jan-24 09:31N 35°21' E 139°49'0 0.0
2018-Jan-24 09:01N 35°21' E 139°49'0 0.0
2018-Jan-24 08:30N 35°21' E 139°49'0 0.0
2018-Jan-24 08:01N 35°21' E 139°49'0 0.0
2018-Jan-24 07:30N 35°21' E 139°49'0 0.0
2018-Jan-24 07:00N 35°21' E 139°49'0 0.0
2018-Jan-24 06:31N 35°21' E 139°49'0 0.0
2018-Jan-24 06:00N 35°21' E 139°49'0 0.0
2018-Jan-24 05:31N 35°21' E 139°49'0 0.0
2018-Jan-24 05:01N 35°21' E 139°49'0 0.0
2018-Jan-24 04:30N 35°21' E 139°49'0 0.0
2018-Jan-24 04:01N 35°21' E 139°49'0 0.0
2018-Jan-24 03:30N 35°21' E 139°49'0 0.0
2018-Jan-24 03:00N 35°21' E 139°49'0 0.0
2018-Jan-24 02:30N 35°21' E 139°49'0 0.1
2018-Jan-24 02:00N 35°21' E 139°49'1 2.1
2018-Jan-24 01:30N 35°22' E 139°49'2 4.9
2018-Jan-24 01:00N 35°22' E 139°46'4 7.9
2018-Jan-24 00:30N 35°19' E 139°44'510.5
2018-Jan-24 00:00N 35°14' E 139°47'510.2
2018-Jan-23 23:31N 35°09' E 139°47'4 7.0
2018-Jan-23 23:00N 35°06' E 139°45'4 8.1
2018-Jan-23 22:30N 35°03' E 139°41'5 9.2
2018-Jan-23 22:01N 34°59' E 139°38'5 9.4
2018-Jan-23 21:30N 34°54' E 139°38'5 9.4
2018-Jan-23 21:00N 34°50' E 139°38'4 7.8
2018-Jan-23 20:28N 34°47' E 139°42'3 7.5
2018-Jan-23 20:00N 34°46' E 139°46'5 7.3
2018-Jan-23 19:20N 34°44' E 139°51'2 7.3
2018-Jan-23 19:00N 34°43' E 139°54'15 4.0
2018-Jan-23 15:20N 34°37' E 140°10'514.7
2018-Jan-23 15:00N 34°36' E 140°05'814.2
2018-Jan-23 14:27N 34°35' E 139°55'614.2
2018-Jan-23 14:01N 34°36' E 139°47'510.9
2018-Jan-23 13:30N 34°35' E 139°41'5 7.9
2018-Jan-23 12:54N 34°37' E 139°46'4 8.7
2018-Jan-23 12:28N 34°39' E 139°50'4 7.6
2018-Jan-23 12:00N 34°39' E 139°55'6 7.4
2018-Jan-23 11:10N 34°39' E 140°02'10 4.8
2018-Jan-23 09:11N 34°39' E 140°14'1113.6
2018-Jan-23 08:22N 34°37' E 140°00'513.7
2018-Jan-23 08:00N 34°37' E 139°54'11 5.6
2018-Jan-23 06:06N 34°39' E 140°07'3 2.5
2018-Jan-23 04:46N 34°40' E 140°11'413.2
2018-Jan-23 04:30N 34°39' E 140°06'714.1
2018-Jan-23 04:00N 34°38' E 139°58'1114.3
2018-Jan-23 03:13N 34°36' E 139°45'313.7
2018-Jan-23 03:00N 34°35' E 139°41'6 6.2
2018-Jan-23 02:05N 34°36' E 139°48'1 7.8
2018-Jan-23 01:57N 34°37' E 139°49'3 7.2
2018-Jan-23 01:30N 34°37' E 139°53'3 6.8
2018-Jan-23 01:00N 34°38' E 139°57'4 8.2
2018-Jan-23 00:29N 34°39' E 140°02'4 7.4
2018-Jan-22 23:57N 34°38' E 140°07'1111.1
2018-Jan-22 22:57N 34°27' E 140°08'611.7
2018-Jan-22 22:25N 34°21' E 140°09'3 0.5
2018-Jan-22 15:47N 34°24' E 140°09'  

Dump ship's entire track history